Time;durP1;ratioP1;P1;durP2;ratioP2;P2;SDS_P1;SDS_P2;PMS_P1;PMS_P2;Temp;Humidity;BMP_temperature;BMP_pressure;BME280_temperature;BME280_humidity;BME280_pressure;Samples;Min_cycle;Max_cycle;Signal;HPM_P1;HPM_P2
2022/10/20 00:01:17;;;;;;;13.80;6.47;;;;;;;10.82;100.00;96681.22;5038073;28;20205;-71
2022/10/20 00:03:45;;;;;;;16.50;7.27;;;;;;;10.84;100.00;96676.63;5037930;28;20225;-72
2022/10/20 00:06:14;;;;;;;17.00;7.20;;;;;;;10.92;100.00;96674.81;5037714;28;20198;-73
2022/10/20 00:08:41;;;;;;;18.40;7.27;;;;;;;10.92;100.00;96663.41;5038335;28;20216;-70
2022/10/20 00:11:11;;;;;;;19.03;7.30;;;;;;;11.00;100.00;96672.97;5038368;28;20193;-71
2022/10/20 00:13:38;;;;;;;20.97;7.60;;;;;;;10.97;100.00;96664.56;5037209;28;20232;-72
2022/10/20 00:16:06;;;;;;;16.87;7.60;;;;;;;10.99;100.00;96671.31;5037088;28;20201;-71
2022/10/20 00:18:33;;;;;;;19.33;7.93;;;;;;;11.00;100.00;96672.97;5038266;28;20201;-72
2022/10/20 00:20:59;;;;;;;16.67;7.73;;;;;;;11.01;100.00;96663.25;5037890;28;20197;-71
2022/10/20 00:23:26;;;;;;;19.07;7.57;;;;;;;11.10;100.00;96673.59;5036733;28;20232;-71
2022/10/20 00:26:01;;;;;;;16.07;7.17;;;;;;;11.20;100.00;96674.22;5038053;28;20209;-71
2022/10/20 00:28:29;;;;;;;17.03;8.03;;;;;;;11.20;100.00;96674.22;5038148;28;20192;-71
2022/10/20 00:30:56;;;;;;;14.57;7.20;;;;;;;11.17;100.00;96673.75;5037446;28;20206;-71
2022/10/20 00:33:23;;;;;;;22.73;8.00;;;;;;;11.09;100.00;96668.50;5037000;28;20248;-72
2022/10/20 00:35:49;;;;;;;19.33;7.70;;;;;;;11.04;100.00;96668.19;5038218;28;20208;-71
2022/10/20 00:38:16;;;;;;;23.10;8.83;;;;;;;11.18;100.00;96670.13;5035534;28;20243;-71
2022/10/20 00:40:42;;;;;;;18.27;8.07;;;;;;;11.25;100.00;96666.63;5037085;28;20212;-73
2022/10/20 00:43:09;;;;;;;21.47;8.73;;;;;;;11.36;100.00;96673.34;5037158;28;20721;-72
2022/10/20 00:45:37;;;;;;;17.10;7.97;;;;;;;11.44;100.00;96681.22;5037162;28;20209;-71
2022/10/20 00:48:12;;;;;;;17.67;7.83;;;;;;;11.35;100.00;96675.13;5035373;28;20209;-70
2022/10/20 00:50:41;;;;;;;17.17;8.43;;;;;;;11.38;100.00;96672.19;5037688;28;20203;-73
2022/10/20 00:53:08;;;;;;;20.83;8.30;;;;;;;11.29;100.00;96661.81;5036696;28;20229;-71
2022/10/20 00:55:40;;;;;;;19.77;8.53;;;;;;;11.38;100.00;96656.34;5036903;28;20205;-72
2022/10/20 00:58:06;;;;;;;21.67;8.30;;;;;;;11.38;100.00;96655.50;5037357;28;20240;-72
2022/10/20 01:00:33;;;;;;;24.30;9.00;;;;;;;11.33;100.00;96653.41;5036951;28;20558;-70
2022/10/20 01:03:02;;;;;;;21.67;9.17;;;;;;;11.33;100.00;96655.19;5036388;28;20228;-71
2022/10/20 01:05:29;;;;;;;25.20;8.23;;;;;;;11.32;100.00;96654.38;5037455;28;20193;-72
2022/10/20 01:07:55;;;;;;;20.70;8.97;;;;;;;11.23;100.00;96647.50;5036953;28;20201;-71
2022/10/20 01:10:26;;;;;;;18.07;8.27;;;;;;;11.32;100.00;96651.75;5036783;28;20201;-72
2022/10/20 01:12:59;;;;;;;20.10;9.30;;;;;;;11.33;100.00;96648.13;5036012;28;20236;-73
2022/10/20 01:15:34;;;;;;;24.13;9.67;;;;;;;11.32;100.00;96645.66;5037358;28;20197;-72
2022/10/20 01:18:09;;;;;;;22.87;9.53;;;;;;;11.33;100.00;96637.56;5036642;28;20204;-72
2022/10/20 01:21:17;;;;;;;21.90;9.47;;;;;;;11.36;100.00;96639.84;5037023;28;20394;-71
2022/10/20 01:24:00;;;;;;;24.47;9.50;;;;;;;11.43;100.00;96640.81;5027520;28;20208;-71
2022/10/20 01:27:02;;;;;;;24.03;9.80;;;;;;;11.45;100.00;96636.19;5037212;28;20197;-71
2022/10/20 01:29:35;;;;;;;25.63;9.80;;;;;;;11.45;100.00;96632.72;5032098;28;20208;-71
2022/10/20 01:32:09;;;;;;;25.03;10.40;;;;;;;11.43;100.00;96632.06;5036950;28;20224;-71
2022/10/20 01:34:46;;;;;;;22.80;8.90;;;;;;;11.42;100.00;96625.97;5035925;28;20220;-71
2022/10/20 01:37:19;;;;;;;22.87;9.77;;;;;;;11.35;100.00;96619.72;5034840;28;20223;-69
2022/10/20 01:39:52;;;;;;;21.77;8.60;;;;;;;11.33;100.00;96610.34;5036379;28;20220;-71
2022/10/20 01:42:22;;;;;;;23.37;10.10;;;;;;;11.40;100.00;96612.13;5035894;28;20224;-71
2022/10/20 01:44:53;;;;;;;21.03;9.07;;;;;;;11.25;100.00;96602.47;5037351;28;20637;-71
2022/10/20 01:47:22;;;;;;;23.90;10.00;;;;;;;11.22;100.00;96600.19;5036694;28;20197;-70
2022/10/20 01:49:50;;;;;;;26.07;10.27;;;;;;;11.12;100.00;96589.84;5036138;28;20678;-71
2022/10/20 01:52:17;;;;;;;22.63;9.73;;;;;;;10.97;100.00;96577.53;5036314;28;20220;-72
2022/10/20 01:54:43;;;;;;;21.67;9.57;;;;;;;11.01;100.00;96577.03;5036236;28;20213;-70
2022/10/20 01:57:32;;;;;;;23.67;9.43;;;;;;;11.11;100.00;96575.03;5036290;28;20197;-71
2022/10/20 02:00:06;;;;;;;22.67;9.93;;;;;;;10.99;100.00;96565.81;5039701;28;20823;-70
2022/10/20 02:02:49;;;;;;;29.43;10.07;;;;;;;11.07;100.00;96562.34;5040232;28;20224;-71
2022/10/20 02:05:28;;;;;;;21.13;10.03;;;;;;;11.08;100.00;96564.81;5039754;28;20657;-70
2022/10/20 02:08:04;;;;;;;23.90;9.60;;;;;;;11.12;100.00;96560.00;5040531;28;20215;-73
2022/10/20 02:10:38;;;;;;;21.07;9.40;;;;;;;10.93;100.00;96556.00;5040528;28;20201;-73
2022/10/20 02:13:06;;;;;;;24.33;9.83;;;;;;;10.99;100.00;96560.56;5039016;28;20775;-71
2022/10/20 02:15:40;;;;;;;23.67;9.60;;;;;;;11.08;100.00;96564.81;5040142;28;20201;-71
2022/10/20 02:18:09;;;;;;;23.10;9.63;;;;;;;11.14;100.00;96572.03;5040065;28;20736;-73
2022/10/20 02:20:35;;;;;;;31.00;10.27;;;;;;;11.14;100.00;96569.41;5040386;28;20215;-70
2022/10/20 02:23:04;;;;;;;26.27;10.17;;;;;;;11.02;100.00;96569.94;5039373;28;20221;-72
2022/10/20 02:25:33;;;;;;;29.03;11.23;;;;;;;11.07;100.00;96573.72;5039947;28;20205;-70
2022/10/20 02:28:02;;;;;;;33.03;12.13;;;;;;;11.15;100.00;96571.03;5039634;28;20220;-71
2022/10/20 02:30:29;;;;;;;31.77;10.73;;;;;;;11.08;100.00;96562.16;5040314;28;20201;-71
2022/10/20 02:32:57;;;;;;;28.27;10.80;;;;;;;11.09;100.00;96565.63;5039465;28;20599;-71
2022/10/20 02:35:28;;;;;;;28.43;11.47;;;;;;;11.19;100.00;96561.78;5039758;28;20212;-72
2022/10/20 02:37:56;;;;;;;32.23;10.70;;;;;;;11.17;100.00;96563.75;5037389;28;20260;-71
2022/10/20 02:40:23;;;;;;;33.30;11.27;;;;;;;11.05;100.00;96559.88;5039738;28;20197;-73
2022/10/20 02:42:49;;;;;;;31.10;11.37;;;;;;;11.10;100.00;96551.47;5038936;28;20240;-73
2022/10/20 02:45:16;;;;;;;36.27;11.33;;;;;;;11.08;100.00;96559.53;5036356;28;20202;-71
2022/10/20 02:47:43;;;;;;;29.43;11.23;;;;;;;11.11;100.00;96561.84;5039418;28;20247;-72
2022/10/20 02:50:11;;;;;;;36.27;11.33;;;;;;;11.16;100.00;96559.50;5039166;28;20209;-71
2022/10/20 02:52:39;;;;;;;34.53;11.63;;;;;;;10.97;100.00;96557.28;5037904;28;20236;-71
2022/10/20 02:55:06;;;;;;;35.07;11.30;;;;;;;10.90;100.00;96565.25;5039743;28;20201;-72
2022/10/20 02:57:33;;;;;;;30.77;11.93;;;;;;;10.94;100.00;96557.59;5038552;28;20652;-71
2022/10/20 02:59:59;;;;;;;29.97;11.67;;;;;;;11.06;100.00;96556.25;5038862;28;20205;-72
2022/10/20 03:02:26;;;;;;;32.47;11.87;;;;;;;11.03;100.00;96551.31;5038970;28;20221;-71
2022/10/20 03:04:52;;;;;;;33.70;12.67;;;;;;;11.00;100.00;96554.28;5039415;28;20209;-70
2022/10/20 03:07:20;;;;;;;30.80;11.70;;;;;;;11.13;100.00;96553.75;5039353;28;20197;-71
2022/10/20 03:09:46;;;;;;;37.90;12.70;;;;;;;11.16;100.00;96556.88;5038842;28;20212;-70
2022/10/20 03:12:13;;;;;;;34.93;12.50;;;;;;;10.99;100.00;96550.00;5038568;28;20229;-72
2022/10/20 03:14:41;;;;;;;37.10;12.57;;;;;;;11.13;100.00;96564.31;5038705;28;20236;-72
2022/10/20 03:17:08;;;;;;;29.33;12.00;;;;;;;11.12;100.00;96560.00;5039065;28;20912;-72
2022/10/20 03:19:34;;;;;;;39.50;12.53;;;;;;;10.99;100.00;96565.81;5038971;28;20201;-71
2022/10/20 03:22:01;;;;;;;34.83;12.20;;;;;;;11.15;100.00;96549.94;5039056;28;20225;-70
2022/10/20 03:24:29;;;;;;;33.23;12.23;;;;;;;11.07;100.00;96551.78;5038142;28;20639;-71
2022/10/20 03:26:55;;;;;;;32.93;12.43;;;;;;;11.07;100.00;96546.50;5038844;28;20669;-71
2022/10/20 03:29:22;;;;;;;33.47;12.10;;;;;;;11.03;100.00;96547.84;5038516;28;20201;-73
2022/10/20 03:31:48;;;;;;;29.23;11.93;;;;;;;11.10;100.00;96541.72;5038440;28;20747;-73
2022/10/20 03:34:15;;;;;;;32.60;12.30;;;;;;;11.14;100.00;96543.03;5038144;28;20221;-70
2022/10/20 03:36:41;;;;;;;32.77;13.50;;;;;;;11.09;100.00;96547.19;5035851;28;20220;-71
2022/10/20 03:39:08;;;;;;;34.33;12.33;;;;;;;11.27;100.00;96547.75;5038186;28;20201;-70
2022/10/20 03:41:35;;;;;;;32.63;12.13;;;;;;;11.27;100.00;96551.19;5038404;28;20221;-71
2022/10/20 03:44:02;;;;;;;38.03;14.20;;;;;;;11.14;100.00;96537.75;5037894;28;20205;-70
2022/10/20 03:46:28;;;;;;;36.77;13.20;;;;;;;11.21;100.00;96538.69;5038149;28;20670;-71
2022/10/20 03:48:55;;;;;;;33.80;12.67;;;;;;;11.15;100.00;96536.75;5038315;28;20228;-70
2022/10/20 03:51:21;;;;;;;36.43;12.30;;;;;;;11.20;100.00;96533.59;5038466;28;20693;-70
2022/10/20 03:53:48;;;;;;;31.30;11.87;;;;;;;11.21;100.00;96543.97;5037632;28;20225;-72
2022/10/20 03:56:18;;;;;;;41.10;13.97;;;;;;;11.34;100.00;96543.41;5038559;28;20212;-71
2022/10/20 03:58:46;;;;;;;35.70;12.47;;;;;;;11.35;100.00;96540.56;5038188;28;20217;-72
2022/10/20 04:01:15;;;;;;;34.07;12.63;;;;;;;11.26;100.00;96536.34;5038516;28;20212;-72
2022/10/20 04:03:42;;;;;;;37.93;13.13;;;;;;;11.34;100.00;96538.13;5038003;28;20201;-72
2022/10/20 04:06:08;;;;;;;30.47;12.63;;;;;;;11.30;100.00;96531.56;5038360;28;20728;-71
2022/10/20 04:08:35;;;;;;;32.20;11.93;;;;;;;11.33;100.00;96542.59;5038163;28;20209;-71
2022/10/20 04:11:01;;;;;;;34.10;12.60;;;;;;;11.35;100.00;96545.84;5038123;28;20211;-71
2022/10/20 04:13:28;;;;;;;37.50;13.20;;;;;;;11.36;100.00;96542.22;5037329;28;20237;-72
2022/10/20 04:15:56;;;;;;;33.07;12.70;;;;;;;11.42;100.00;96530.16;5038678;28;20213;-73
2022/10/20 04:18:22;;;;;;;34.23;12.73;;;;;;;11.34;100.00;96524.94;5037653;28;20208;-72
2022/10/20 04:20:49;;;;;;;34.67;12.57;;;;;;;11.35;100.00;96519.47;5037254;28;20201;-71
2022/10/20 04:23:15;;;;;;;30.40;12.70;;;;;;;11.37;100.00;96514.84;5036942;28;20597;-71
2022/10/20 04:25:44;;;;;;;35.53;12.50;;;;;;;11.32;100.00;96530.38;5037028;28;20205;-70
2022/10/20 04:28:11;;;;;;;40.60;13.47;;;;;;;11.38;100.00;96534.97;5037714;28;20229;-70
2022/10/20 04:30:38;;;;;;;35.20;14.07;;;;;;;11.45;100.00;96519.25;5037719;28;20482;-70
2022/10/20 04:33:06;;;;;;;35.77;13.67;;;;;;;11.38;100.00;96524.41;5036684;28;20221;-70
2022/10/20 04:35:32;;;;;;;36.00;13.47;;;;;;;11.23;100.00;96515.59;5037628;28;20221;-71
2022/10/20 04:37:59;;;;;;;37.40;13.67;;;;;;;11.33;100.00;96524.13;5034912;28;20198;-72
2022/10/20 04:40:26;;;;;;;35.13;13.43;;;;;;;11.31;100.00;96518.19;5037383;28;20197;-73
2022/10/20 04:42:52;;;;;;;37.17;14.17;;;;;;;11.30;100.00;96511.28;5036641;28;20772;-71
2022/10/20 04:45:22;;;;;;;34.20;13.70;;;;;;;11.29;100.00;96503.53;5037463;28;20197;-71
2022/10/20 04:47:49;;;;;;;35.97;14.17;;;;;;;11.32;100.00;96492.63;5036760;28;20205;-71
2022/10/20 04:50:17;;;;;;;40.97;15.00;;;;;;;11.48;100.00;96503.06;5036961;28;20209;-73
2022/10/20 04:52:43;;;;;;;45.10;15.17;;;;;;;11.40;100.00;96498.66;5037134;28;20241;-71
2022/10/20 04:55:10;;;;;;;47.10;15.60;;;;;;;11.37;100.00;96491.09;5037154;28;20217;-73
2022/10/20 04:57:36;;;;;;;42.77;15.30;;;;;;;11.35;100.00;96498.38;5037285;28;20213;-73
2022/10/20 05:00:04;;;;;;;38.63;14.37;;;;;;;11.43;100.00;96490.41;5037054;28;20708;-71
2022/10/20 05:02:31;;;;;;;43.03;14.33;;;;;;;11.34;100.00;96470.38;5035882;28;20240;-74
2022/10/20 05:04:57;;;;;;;37.50;14.97;;;;;;;11.42;100.00;96474.72;5036613;28;20197;-72
2022/10/20 05:07:25;;;;;;;38.20;14.33;;;;;;;11.47;100.00;96470.59;5036675;28;20201;-72
2022/10/20 05:09:51;;;;;;;33.90;14.70;;;;;;;11.45;100.00;96463.84;5036641;28;20205;-72
2022/10/20 05:12:18;;;;;;;38.13;14.60;;;;;;;11.50;100.00;96472.91;5037351;28;20593;-72
2022/10/20 05:14:44;;;;;;;40.30;15.57;;;;;;;11.52;100.00;96467.44;5036740;28;20248;-71
2022/10/20 05:17:11;;;;;;;41.33;15.73;;;;;;;11.50;100.00;96466.81;5037165;28;20208;-73
2022/10/20 05:19:37;;;;;;;42.67;15.83;;;;;;;11.55;100.00;96460.81;5036819;28;20205;-71
2022/10/20 05:22:04;;;;;;;36.77;14.67;;;;;;;11.47;100.00;96457.41;5036526;28;20232;-70
2022/10/20 05:24:31;;;;;;;38.63;14.90;;;;;;;11.64;100.00;96461.56;5036609;28;20202;-71
2022/10/20 05:26:58;;;;;;;38.77;15.37;;;;;;;11.51;100.00;96461.34;5036677;28;20208;-71
2022/10/20 05:29:24;;;;;;;42.93;14.67;;;;;;;11.56;100.00;96466.94;5036868;28;20204;-70
2022/10/20 05:31:51;;;;;;;35.27;13.43;;;;;;;11.65;100.00;96463.22;5036857;28;20709;-71
2022/10/20 05:34:17;;;;;;;41.87;15.07;;;;;;;11.62;100.00;96463.56;5035813;28;20225;-71
2022/10/20 05:36:44;;;;;;;38.90;15.57;;;;;;;11.53;100.00;96459.34;5033162;28;20204;-71
2022/10/20 05:39:11;;;;;;;37.97;15.17;;;;;;;11.52;100.00;96464.81;5036497;28;20201;-71
2022/10/20 05:41:38;;;;;;;39.87;14.83;;;;;;;11.58;100.00;96457.84;5036281;28;20232;-71
2022/10/20 05:44:07;;;;;;;41.97;14.50;;;;;;;11.60;100.00;96457.66;5035937;28;20212;-71
2022/10/20 05:46:39;;;;;;;34.13;14.43;;;;;;;11.62;100.00;96455.63;5036564;28;20201;-71
2022/10/20 05:49:06;;;;;;;43.80;15.50;;;;;;;11.61;100.00;96459.28;5036178;28;20205;-71
2022/10/20 05:51:35;;;;;;;42.27;14.83;;;;;;;11.74;100.00;96454.22;5036668;28;20243;-71
2022/10/20 05:54:02;;;;;;;43.90;16.33;;;;;;;11.73;100.00;96457.88;5036418;28;20221;-71
2022/10/20 05:56:30;;;;;;;40.10;15.17;;;;;;;11.72;100.00;96461.50;5036671;28;20201;-71
2022/10/20 05:58:58;;;;;;;43.43;15.43;;;;;;;11.77;100.00;96473.19;5036566;28;20201;-70
2022/10/20 06:01:27;;;;;;;42.43;16.43;;;;;;;11.91;100.00;96463.63;5036531;28;20868;-70
2022/10/20 06:03:55;;;;;;;38.42;14.07;;;;;;;11.87;100.00;96467.63;5035576;28;20206;-71
2022/10/20 06:06:24;;;;;;;40.47;15.73;;;;;;;11.91;100.00;96463.63;5037156;28;20216;-79
2022/10/20 06:08:50;;;;;;;42.50;15.20;;;;;;;11.89;100.00;96460.34;5037020;28;20212;-72
2022/10/20 06:11:18;;;;;;;47.43;15.63;;;;;;;12.00;100.00;96465.19;5036511;28;20205;-71
2022/10/20 06:13:45;;;;;;;44.03;15.87;;;;;;;12.04;100.00;96463.84;5035406;28;20224;-71
2022/10/20 06:16:15;;;;;;;44.87;16.10;;;;;;;12.16;100.00;96463.22;5036769;28;20205;-71
2022/10/20 06:18:43;;;;;;;43.70;16.03;;;;;;;12.12;100.00;96461.09;5036660;28;20201;-71
2022/10/20 06:21:11;;;;;;;48.03;16.73;;;;;;;12.03;100.00;96462.19;5034467;28;20670;-71
2022/10/20 06:23:38;;;;;;;45.77;16.93;;;;;;;12.09;100.00;96456.19;5034445;28;20209;-71
2022/10/20 06:26:07;;;;;;;43.07;15.77;;;;;;;12.19;100.00;96466.31;5035835;28;20209;-71
2022/10/20 06:28:34;;;;;;;46.13;15.70;;;;;;;12.21;100.00;96464.31;5036253;28;20212;-71
2022/10/20 06:31:01;;;;;;;46.70;15.63;;;;;;;12.22;100.00;96468.59;5036631;28;20567;-71
2022/10/20 06:33:30;;;;;;;44.37;16.47;;;;;;;12.30;100.00;96470.34;5035723;28;20228;-71
2022/10/20 06:35:59;;;;;;;40.07;15.77;;;;;;;12.26;100.00;96464.59;5033664;28;20209;-71
2022/10/20 06:38:26;;;;;;;48.67;15.90;;;;;;;12.20;100.00;96460.00;5035693;28;20971;-70
2022/10/20 06:40:52;;;;;;;45.63;16.27;;;;;;;12.34;100.00;96466.31;5036362;28;20292;-71
2022/10/20 06:43:19;;;;;;;44.60;16.03;;;;;;;12.26;100.00;96467.22;5035574;28;20224;-71
2022/10/20 06:45:54;;;;;;;52.77;17.30;;;;;;;12.47;100.00;96472.59;5038066;28;20298;-70
2022/10/20 06:48:20;;;;;;;41.42;15.85;;;;;;;12.39;100.00;96475.34;5039977;28;20243;-72
2022/10/20 06:50:48;;;;;;;46.97;17.07;;;;;;;12.47;100.00;96479.72;5039820;28;20209;-71
2022/10/20 06:53:14;;;;;;;46.63;16.85;;;;;;;12.36;100.00;96483.63;5038253;28;20236;-70
2022/10/20 06:55:41;;;;;;;45.97;16.27;;;;;;;12.39;100.00;96477.16;5039294;28;21018;-72
2022/10/20 06:58:07;;;;;;;45.58;15.82;;;;;;;12.41;100.00;96480.44;5039455;28;20197;-71
2022/10/20 07:00:34;;;;;;;44.03;16.13;;;;;;;12.42;100.00;96474.16;5039867;28;20201;-71
2022/10/20 07:03:00;;;;;;;43.10;16.38;;;;;;;12.41;100.00;96468.06;5038342;28;20247;-71
2022/10/20 07:05:27;;;;;;;43.13;16.53;;;;;;;12.46;100.00;96463.06;5039697;28;20201;-71
2022/10/20 07:07:54;;;;;;;46.17;16.27;;;;;;;12.57;100.00;96459.94;5039743;28;20202;-71
2022/10/20 07:10:21;;;;;;;42.93;16.27;;;;;;;12.57;100.00;96459.94;5039071;28;20213;-71
2022/10/20 07:12:47;;;;;;;47.60;17.02;;;;;;;12.57;100.00;96452.00;5037734;28;20225;-70
2022/10/20 07:15:14;;;;;;;52.33;17.93;;;;;;;12.60;100.00;96446.34;5037884;28;20723;-70
2022/10/20 07:17:41;;;;;;;44.10;16.45;;;;;;;12.68;100.00;96448.06;5038385;28;20197;-72
2022/10/20 07:20:08;;;;;;;45.63;16.93;;;;;;;12.69;100.00;96439.97;5039317;28;20217;-70
2022/10/20 07:22:35;;;;;;;41.37;15.60;;;;;;;12.69;100.00;96439.97;5039399;28;20221;-72
2022/10/20 07:25:05;;;;;;;40.67;15.63;;;;;;;12.86;100.00;96446.72;5038422;28;20197;-70
2022/10/20 07:27:32;;;;;;;42.77;15.00;;;;;;;12.65;100.00;96449.25;5038852;28;20197;-70
2022/10/20 07:29:58;;;;;;;40.50;14.73;;;;;;;12.74;100.00;96456.09;5039632;28;21033;-70
2022/10/20 07:32:25;;;;;;;41.30;14.47;;;;;;;12.65;100.00;96457.19;5038641;28;20221;-71
2022/10/20 07:34:51;;;;;;;47.95;14.90;;;;;;;12.68;100.00;96453.34;5038832;28;20223;-71
2022/10/20 07:37:18;;;;;;;39.72;13.98;;;;;;;12.82;100.00;96448.84;5038178;28;20205;-69
2022/10/20 07:39:44;;;;;;;43.78;14.68;;;;;;;12.75;100.00;96448.97;5038996;28;20205;-70
2022/10/20 07:42:12;;;;;;;38.70;14.40;;;;;;;12.98;100.00;96453.13;5037920;28;20225;-71
2022/10/20 07:44:38;;;;;;;40.42;14.23;;;;;;;12.89;100.00;96448.97;5037670;28;20205;-70
2022/10/20 07:47:05;;;;;;;41.75;14.60;;;;;;;12.88;100.00;96452.63;5038937;28;20205;-71
2022/10/20 07:49:31;;;;;;;35.47;13.43;;;;;;;12.78;100.00;96433.56;5037642;28;20212;-72
2022/10/20 07:51:58;;;;;;;36.50;14.43;;;;;;;12.86;100.00;96434.28;5037729;28;20483;-70
2022/10/20 07:54:24;;;;;;;38.05;13.65;;;;;;;12.83;100.00;96431.19;5037433;28;20334;-71
2022/10/20 07:56:51;;;;;;;36.03;14.33;;;;;;;12.81;100.00;96438.47;5033527;28;20205;-71
2022/10/20 07:59:19;;;;;;;39.58;13.45;;;;;;;13.01;100.00;96434.28;5037707;28;20197;-72
2022/10/20 08:01:46;;;;;;;42.97;15.07;;;;;;;12.83;100.00;96447.06;5038599;28;21047;-71
2022/10/20 08:04:12;;;;;;;40.63;14.57;;;;;;;12.88;100.00;96450.81;5037724;28;20200;-71
2022/10/20 08:06:39;;;;;;;38.97;14.47;;;;;;;12.93;100.00;96448.44;5037999;28;20216;-72
2022/10/20 08:09:06;;;;;;;41.30;15.18;;;;;;;12.87;100.00;96443.06;5038180;28;20571;-71
2022/10/20 08:11:32;;;;;;;38.30;13.70;;;;;;;13.07;100.00;96452.88;5038325;28;20217;-72
2022/10/20 08:13:59;;;;;;;40.38;14.00;;;;;;;12.92;100.00;96444.13;5036982;28;20618;-72
2022/10/20 08:16:26;;;;;;;34.13;12.30;;;;;;;13.08;100.00;96440.44;5037634;28;20221;-72
2022/10/20 08:18:53;;;;;;;31.70;12.43;;;;;;;13.11;100.00;96429.47;5037732;28;20205;-71
2022/10/20 08:21:21;;;;;;;32.08;12.50;;;;;;;13.23;100.00;96435.94;5037720;28;20589;-71
2022/10/20 08:23:49;;;;;;;31.48;12.27;;;;;;;13.20;100.00;96429.19;5036597;28;20201;-70
2022/10/20 08:26:18;;;;;;;31.67;12.35;;;;;;;13.20;100.00;96426.53;5037249;28;20779;-72
2022/10/20 08:28:45;;;;;;;33.20;12.13;;;;;;;13.31;100.00;96433.16;5037271;28;20209;-72
2022/10/20 08:31:11;;;;;;;34.88;12.15;;;;;;;13.42;100.00;96423.69;5037695;28;20205;-72
2022/10/20 08:33:39;;;;;;;29.70;11.98;;;;;;;13.39;100.00;96423.28;5037528;28;20674;-71
2022/10/20 08:36:09;;;;;;;29.33;11.80;;;;;;;13.48;100.00;96417.63;5036552;28;20221;-71
2022/10/20 08:38:36;;;;;;;27.90;11.43;;;;;;;13.43;100.00;96419.22;5033921;28;20209;-71
2022/10/20 08:41:06;;;;;;;35.03;12.35;;;;;;;13.39;100.00;96412.69;5037655;28;20197;-71
2022/10/20 08:43:36;;;;;;;29.73;11.38;;;;;;;13.42;100.00;96417.59;5036464;28;20217;-70
2022/10/20 08:46:02;;;;;;;29.52;11.80;;;;;;;13.41;100.00;96415.94;5036915;28;20197;-72
2022/10/20 08:48:33;;;;;;;34.70;12.25;;;;;;;13.58;100.00;96418.16;5037406;28;20256;-72
2022/10/20 08:51:01;;;;;;;31.50;12.10;;;;;;;13.44;100.00;96416.38;5037808;28;20212;-72
2022/10/20 08:53:37;;;;;;;29.95;11.65;;;;;;;13.33;100.00;96418.72;5036502;28;20216;-72
2022/10/20 08:56:04;;;;;;;27.33;12.02;;;;;;;13.44;100.00;96416.38;5037205;28;20308;-71
2022/10/20 08:58:31;;;;;;;32.50;12.20;;;;;;;13.44;100.00;96416.38;5037303;28;20201;-71
2022/10/20 09:00:59;;;;;;;27.20;11.65;;;;;;;13.35;100.00;96405.28;5037053;28;20205;-72
2022/10/20 09:03:30;;;;;;;27.65;11.18;;;;;;;13.45;100.00;96414.53;5036817;28;20595;-72
2022/10/20 09:06:02;;;;;;;30.57;12.83;;;;;;;13.43;100.00;96424.53;5034493;28;20207;-72
2022/10/20 09:08:32;;;;;;;33.47;12.38;;;;;;;13.40;100.00;96423.06;5036908;28;20205;-72
2022/10/20 09:10:58;;;;;;;27.85;11.35;;;;;;;13.45;100.00;96418.03;5036895;28;20216;-72
2022/10/20 09:13:27;;;;;;;24.52;10.93;;;;;;;13.35;100.00;96410.59;5035928;28;20221;-72
2022/10/20 09:15:58;;;;;;;27.23;11.13;;;;;;;13.38;100.00;96404.91;5037205;28;20235;-71
2022/10/20 09:18:25;;;;;;;26.08;10.93;;;;;;;13.39;100.00;96418.78;5037069;28;20242;-71
2022/10/20 09:20:53;;;;;;;23.13;10.82;;;;;;;13.58;100.00;96418.16;5036649;28;20210;-71
2022/10/20 09:23:24;;;;;;;31.45;11.88;;;;;;;13.57;100.00;96410.41;5036244;28;20217;-72
2022/10/20 09:25:53;;;;;;;30.73;11.82;;;;;;;13.56;100.00;96409.56;5037190;28;20556;-72
2022/10/20 09:28:25;;;;;;;26.95;11.27;;;;;;;13.72;100.00;96401.34;5036537;28;21178;-71
2022/10/20 09:30:52;;;;;;;30.15;11.57;;;;;;;13.55;100.00;96397.31;5036285;28;21212;-71
2022/10/20 09:33:27;;;;;;;29.83;12.35;;;;;;;13.75;100.00;96411.56;5035670;28;20573;-72
2022/10/20 09:35:55;;;;;;;28.27;12.30;;;;;;;13.68;100.00;96410.69;5035767;28;20232;-72
2022/10/20 09:38:28;;;;;;;30.85;11.98;;;;;;;13.92;100.00;96412.91;5036502;28;20676;-72
2022/10/20 09:41:00;;;;;;;33.20;12.73;;;;;;;13.82;100.00;96417.72;5035496;28;20682;-72
2022/10/20 09:43:27;;;;;;;35.17;12.68;;;;;;;13.79;100.00;96423.41;5032076;28;20415;-72
2022/10/20 09:45:57;;;;;;;31.08;11.50;;;;;;;13.75;100.00;96427.44;5035575;28;20220;-72
2022/10/20 09:48:27;;;;;;;32.53;12.65;;;;;;;13.95;100.00;96430.25;5036231;28;20213;-71
2022/10/20 09:50:57;;;;;;;26.60;11.88;;;;;;;14.19;100.00;96428.00;5034962;28;20213;-72
2022/10/20 09:53:28;;;;;;;26.50;10.20;;;;;;;14.14;100.00;96427.75;5035063;28;20217;-72
2022/10/20 09:55:55;;;;;;;26.15;11.32;;;;;;;14.09;100.00;96438.94;5037512;28;20217;-72
2022/10/20 09:58:27;;;;;;;22.65;10.68;;;;;;;14.12;100.00;96433.25;5036323;28;20212;-71
2022/10/20 10:01:00;;;;;;;21.30;9.60;;;;;;;14.15;100.00;96432.03;5035986;28;20240;-72
2022/10/20 10:03:27;;;;;;;23.15;9.88;;;;;;;14.10;100.00;96435.28;5036753;28;20225;-71
2022/10/20 10:05:54;;;;;;;24.10;11.07;;;;;;;14.24;100.00;96437.03;5036692;28;20204;-71
2022/10/20 10:08:23;;;;;;;24.35;10.68;;;;;;;14.26;100.00;96431.53;5036531;28;20558;-72
2022/10/20 10:11:03;;;;;;;27.40;11.05;;;;;;;14.25;100.00;96430.69;5035556;28;20201;-72
2022/10/20 10:13:37;;;;;;;25.80;10.38;;;;;;;14.30;100.00;96424.81;5035582;28;21344;-72
2022/10/20 10:16:06;;;;;;;27.65;10.32;;;;;;;14.35;100.00;96420.56;5035749;28;20236;-71
2022/10/20 10:18:34;;;;;;;24.60;9.90;;;;;;;14.37;100.00;96437.09;5036470;28;20206;-72
2022/10/20 10:21:04;;;;;;;26.40;11.50;;;;;;;14.36;100.00;96440.75;5038414;28;20692;-72
2022/10/20 10:23:35;;;;;;;23.88;10.65;;;;;;;14.50;100.00;96441.63;5039379;28;20232;-71
2022/10/20 10:26:03;;;;;;;23.83;9.95;;;;;;;14.56;100.00;96444.34;5040852;28;20205;-72
2022/10/20 10:28:34;;;;;;;28.35;10.63;;;;;;;14.48;100.00;96441.03;5039960;28;20205;-72
2022/10/20 10:31:28;;;;;;;25.20;10.70;;;;;;;14.52;100.00;96439.63;5036433;28;20201;-72
2022/10/20 10:34:06;;;;;;;22.70;10.35;;;;;;;14.34;100.00;96432.16;5003273;28;20209;-72
2022/10/20 10:36:35;;;;;;;26.63;10.80;;;;;;;14.22;100.00;96422.31;5039850;28;20221;-71
2022/10/20 10:39:03;;;;;;;30.05;11.40;;;;;;;14.23;100.00;96423.94;5039481;28;20201;-72
2022/10/20 10:41:53;;;;;;;25.90;10.80;;;;;;;14.44;100.00;96431.81;5039744;28;20204;-72
2022/10/20 10:44:31;;;;;;;27.88;11.10;;;;;;;14.29;100.00;96442.53;5038648;28;20670;-72
2022/10/20 10:47:04;;;;;;;23.70;11.10;;;;;;;14.43;100.00;96443.44;5039341;28;20201;-72
2022/10/20 10:49:45;;;;;;;21.30;9.82;;;;;;;14.54;100.00;96432.28;5039706;28;20733;-71
2022/10/20 10:52:28;;;;;;;26.33;11.15;;;;;;;14.51;100.00;96424.72;5039314;28;20228;-71
2022/10/20 10:55:06;;;;;;;24.38;9.85;;;;;;;14.63;100.00;96421.31;5039425;28;20197;-73
2022/10/20 10:57:42;;;;;;;28.40;11.68;;;;;;;14.50;100.00;96407.16;5039765;28;20201;-73
2022/10/20 11:00:17;;;;;;;24.08;10.50;;;;;;;14.47;100.00;96410.22;5039882;28;20205;-72
2022/10/20 11:03:01;;;;;;;27.08;10.95;;;;;;;14.58;100.00;96407.81;5038335;28;20972;-72
2022/10/20 11:05:39;;;;;;;22.40;10.27;;;;;;;14.58;100.00;96397.22;5039855;28;20204;-72
2022/10/20 11:08:16;;;;;;;19.15;8.98;;;;;;;14.70;100.00;96388.50;5039948;28;20660;-72
2022/10/20 11:10:53;;;;;;;22.50;10.30;;;;;;;14.64;100.00;96391.94;5038615;28;20748;-72
2022/10/20 11:13:29;;;;;;;23.88;10.73;;;;;;;14.66;100.00;96389.91;5038042;28;20315;-72
2022/10/20 11:16:06;;;;;;;21.52;9.30;;;;;;;14.57;100.00;96384.16;5039617;28;20227;-72
2022/10/20 11:18:49;;;;;;;24.98;10.50;;;;;;;14.91;100.00;96380.41;5039064;28;20204;-72
2022/10/20 11:21:28;;;;;;;21.95;9.98;;;;;;;14.67;100.00;96386.22;5038906;28;20205;-72